AirNav   Bose Proflight Series 2 Wireless Aviation Headset
 
 322 users online  

LL22 Brookeridge Air Park
Downers Grove, Illinois, USA

GOING TO DOWNERS GROVE?


FAA INFORMATION EFFECTIVE 07 NOVEMBER 2019

Location

FAA Identifier: LL22
Lat/Long: 41-43-58.0000N 087-59-57.9000W
41-43.966667N 087-59.965000W
41.7327778,-87.9994167
(estimated)
Elevation: 749.4 ft. / 228.4 m (surveyed)
Variation: 04W (2015)
From city: 3 miles S of DOWNERS GROVE, IL
Time zone: UTC -6 (UTC -5 during Daylight Saving Time)
Zip code: 60561

Airport Operations

Airport use: Private use. Permission required prior to landing
Activation date: 08/1955
Control tower: no
ARTCC: CHICAGO CENTER
FSS: KANKAKEE FLIGHT SERVICE STATION
NOTAMs facility: FDC (NOTAM-D service not available)
Attendance: CONTINUOUS
Wind indicator: lighted
Segmented circle: no
Lights: DUSK-DAWN. RY 9/27 NON-STANDARD EDGE INTS LIGHTING

Airport Communications

CHICAGO APPROACH: 133.5
CHICAGO DEPARTURE: 133.5
WX AWOS-3 at LOT (9 nm SW): 118.525 (815-588-4802)
WX ASOS at MDW (12 nm E): PHONE 773-884-4424
WX ASOS at ORD (15 nm N): PHONE 773-462-0118
WX AWOS-3 at JOT (15 nm SW): 119.975 (815-730-9560)
WX ASOS at DPA (15 nm NW): PHONE 630-584-2728
WX AWOS-3 at 06C (16 nm N): 128.275 ((847) 895-2887)

Nearby radio navigation aids

VOR radial/distance  VOR name  Freq  Var
JOTr050/18.2JOLIET VOR/DME112.3002E
DPAr119/18.3DUPAGE VOR/DME108.4002E
CGTr303/23.4CHICAGO HEIGHTS VORTAC114.2002E
EONr339/29.3PEOTONE VORTAC113.2002E
OBKr186/29.4NORTHBROOK VOR/DME113.0002W

Airport Services

Airframe service: NONE
Powerplant service: NONE

Runway Information

Runway 9/27

Dimensions: 2813 x 40 ft. / 857 x 12 m
Surface: asphalt
RWY 09/27 IS 40 FT WIDE STRIP OF ASPH DOWN THE MIDDLE OF A 150 FT WIDE TURF RWY.
Runway edge lights: medium intensity
RUNWAY 9  RUNWAY 27
Latitude: 41-43.961667N41-43.973000N
Longitude: 088-00.273833W087-59.655667W
Elevation: 745.8 ft.739.8 ft.
Traffic pattern: leftleft
Displaced threshold: 260 ft.
DSPLCD THLD DUE TO OBSTACLES IN THE APPROACH ZONE. THE THLD IS BASED ON A 20 TO 1 SLOPE REQ.
205 ft.
Touchdown point: yes, no lightsyes, no lights
Obstructions: 51 ft. trees, 85 ft. from runway
RWY 09 SLOPE IS 6:1 AT DSPLD THLD
12 ft. road, 40 ft. from runway

Runway 18/36

Dimensions: 1940 x 25 ft. / 591 x 8 m
Surface: turf
SOD RY WITH WITH 25 FT WIDE STRIP OF ASPH DOWN THE MIDDLE.
Operational restrictions: RESTRICTED LANDING AREA
RUNWAY 18  RUNWAY 36
Traffic pattern: leftleft
Displaced threshold: 80 ft.120 ft.
Obstructions: 22 ft. tree, 152 ft. from runway
RWY 18 SLOPE IS 10:1 AT DSPLCD THLD
63 ft. tree, 307 ft. from runway

Airport Ownership and Management from official FAA records

Ownership: Privately-owned
Owner: BROOKERIDGE AERO ASSOC INC
437 MILLBROOK DRIVE
DOWNERS GROVE, IL 60516
Phone 630-269-0323
Manager: DAVE RUTTER
437 MILLBROOK DRIVE
DOWNERS GROVE, IL 60516
Phone 630-269-0323
BOB SIEGFRIEND 630-910-5286. NOTE: CALL RUTTER FIRST, THEN SIEGFRIED.

Airport Operational Statistics

Aircraft based on the field: 55
Single engine airplanes: 50
Multi engine airplanes: 5
    

Additional Remarks

FOR CD CTC CHICAGO APCH AT 847-289-0926.

Instrument Procedures

There are no published instrument procedures at LL22.

Some nearby airports with instrument procedures:

1C5 - Bolingbrook's Clow International Airport (6 nm W)
KLOT - Lewis University Airport (9 nm SW)
KMDW - Chicago Midway International Airport (12 nm E)
KORD - Chicago O'Hare International Airport (15 nm N)
KDPA - DuPage Airport (15 nm NW)
 
Loc | Ops | Rwys | IFR | FBO | Links
Com | Nav | Svcs | Stats | Notes
Area around LL22 (Brookeridge Air Park)
 
Road maps at: MapQuest Bing Google
 
Aerial photo
WARNING: Photo may not be current or correct
Aerial photo of LL22 (Brookeridge Air Park)
Photo by Michael Bracki, P.E.
Photo taken 21-Oct-2018
looking northeast.

Do you have a better or more recent aerial photo of Brookeridge Air Park that you would like to share? If so, please send us your photo.

 
Sectional chart

 
Airport distance calculator
Flying to Brookeridge Air Park? Find the distance to fly.

From to LL22

Sunrise and sunset
Times for 12-Nov-2019
 Local
(UTC-6)
 Zulu
(UTC)
Morning civil twilight06:0912:09
Sunrise06:3912:39
Sunset16:3422:34
Evening civil twilight17:0323:03

Current date and time
Zulu (UTC)  12-Nov-2019 08:49:04
Local (UTC-6)  12-Nov-2019 02:49:04
 
METAR
KLOT 
8nm SW 
120835Z AUTO 33013KT 10SM CLR M12/M16 A3043 RMK AO2 T11191157
KMDW 
12nm E 
120753Z 32015KT 10SM CLR M11/M17 A3041 RMK AO2 SLP316 T11061167 $
KJOT 
15nm SW 
120835Z AUTO 32007KT 10SM CLR A3044 RMK AO2
KORD 
15nm N 
120751Z 32015G21KT 10SM CLR M12/M17 A3041 RMK AO2 SLP310 T11171167 $
KDPA 
16nm NW 
120752Z 32013KT 10SM CLR M12/M17 A3042 RMK AO2 SLP316 T11221172
K06C 
16nm N 
120835Z AUTO 31004KT 10SM CLR M12/M17 A3042 RMK AO2 T11211166
TAF
KMDW 
12nm E 
120530Z 1206/1312 32014G22KT P6SM SKC FM121800 30011KT P6SM FEW030 FM130000 24005KT P6SM SCT200 FM130900 19011KT P6SM BKN150
KORD 
15nm N 
120530Z 1206/1312 32014G22KT P6SM SKC FM121800 30011KT P6SM FEW030 FM130000 24005KT P6SM SCT200 FM130900 19011KT P6SM BKN150
KDPA 
16nm NW 
120530Z 1206/1306 32012G18KT P6SM SKC FM121800 30011KT P6SM FEW030 FM130000 24005KT P6SM SCT200
NOTAMs
Click for the latest NOTAMs
NOTAMs are issued by the DoD/FAA and will open in a separate window not controlled by AirNav.

 

 
 

Would you like to see your business listed on this page?

 If your business provides an interesting product or service to pilots, flight crews, aircraft, or users of the Brookeridge Air Park, you should consider listing it here.  To start the listing process, click on the button below
 
Add a business
 

Other Pages about Brookeridge Air Park

Brookeridge Airpark
 
Update a link
 
Copyright © AirNav, LLC. All rights reserved. Privacy Policy  Contact